Wetterdaten: Woche 07.05.18 - 13.05.18 (KW19)
Datum Zeit Temperatur Luftfeuchte Luftdruck Niederschlag Windrichtung Sonnenschein Solar Wind
07.05.2018 00:00 14,4 C 53 % 1015,5 hPa 0,0 l/m O-NO 0,00 h 0 W/m 9,2 km/h (2 Bft)
07.05.2018 01:00 13,5 C 56 % 1015,2 hPa 0,0 l/m O-NO 0,00 h 0 W/m 6,2 km/h (2 Bft)
07.05.2018 02:00 12,0 C 61 % 1015,0 hPa 0,0 l/m NO 0,00 h 0 W/m 5,6 km/h (1 Bft)
07.05.2018 03:00 10,6 C 67 % 1014,7 hPa 0,0 l/m NO 0,00 h 0 W/m 5,3 km/h (1 Bft)
07.05.2018 04:00 10,3 C 69 % 1014,4 hPa 0,0 l/m N-NO 0,00 h 0 W/m 9,8 km/h (2 Bft)
07.05.2018 05:00 9,5 C 72 % 1014,2 hPa 0,0 l/m N-NO 0,00 h 6 W/m 4,9 km/h (1 Bft)
07.05.2018 06:00 8,8 C 76 % 1014,4 hPa 0,0 l/m N-NO 0,17 h 39 W/m 10,3 km/h (2 Bft)
07.05.2018 07:00 10,3 C 73 % 1014,7 hPa 0,0 l/m NO 0,92 h 179 W/m 14,2 km/h (3 Bft)
07.05.2018 08:00 12,4 C 68 % 1014,6 hPa 0,0 l/m NO 1,00 h 372 W/m 16,4 km/h (3 Bft)
07.05.2018 09:00 14,8 C 62 % 1014,5 hPa 0,0 l/m O-NO 0,83 h 445 W/m 16,0 km/h (3 Bft)
07.05.2018 10:00 17,1 C 54 % 1014,3 hPa 0,0 l/m O-SO 0,92 h 615 W/m 20,1 km/h (4 Bft)
07.05.2018 11:00 19,1 C 48 % 1013,9 hPa 0,0 l/m O-NO 1,00 h 779 W/m 24,1 km/h (4 Bft)
07.05.2018 12:00 20,9 C 45 % 1013,4 hPa 0,0 l/m O 1,00 h 840 W/m 21,8 km/h (4 Bft)
07.05.2018 13:00 22,3 C 43 % 1012,9 hPa 0,0 l/m NO 1,00 h 854 W/m 22,8 km/h (4 Bft)
07.05.2018 14:00 23,1 C 42 % 1012,4 hPa 0,0 l/m O 1,00 h 817 W/m 22,0 km/h (4 Bft)
07.05.2018 15:00 23,6 C 42 % 1011,7 hPa 0,0 l/m O 1,00 h 732 W/m 22,8 km/h (4 Bft)
07.05.2018 16:00 23,9 C 41 % 1011,1 hPa 0,0 l/m O-SO 1,00 h 629 W/m 22,1 km/h (4 Bft)
07.05.2018 17:00 24,1 C 39 % 1010,7 hPa 0,0 l/m O 1,00 h 476 W/m 21,7 km/h (4 Bft)
07.05.2018 18:00 23,2 C 40 % 1010,8 hPa 0,0 l/m O 0,83 h 270 W/m 18,4 km/h (3 Bft)
07.05.2018 19:00 21,5 C 42 % 1010,8 hPa 0,0 l/m O 0,08 h 52 W/m 15,7 km/h (3 Bft)
07.05.2018 20:00 20,1 C 45 % 1010,5 hPa 0,0 l/m O 0,17 h 18 W/m 9,4 km/h (2 Bft)
07.05.2018 21:00 18,8 C 48 % 1010,7 hPa 0,0 l/m O-NO 0,00 h 0 W/m 10,1 km/h (2 Bft)
07.05.2018 22:00 16,9 C 54 % 1010,9 hPa 0,0 l/m O-NO 0,00 h 0 W/m 1,9 km/h (1 Bft)
07.05.2018 23:00 15,3 C 59 % 1010,8 hPa 0,0 l/m N 0,00 h 0 W/m 0,9 km/h (0 Bft)
08.05.2018 00:00 13,9 C 64 % 1010,4 hPa 0,0 l/m N 0,00 h 0 W/m 1,2 km/h (1 Bft)
08.05.2018 01:00 13,0 C 68 % 1009,9 hPa 0,0 l/m N 0,00 h 0 W/m 1,2 km/h (1 Bft)
08.05.2018 02:00 12,3 C 71 % 1009,5 hPa 0,0 l/m O-NO 0,00 h 0 W/m 4,9 km/h (1 Bft)
08.05.2018 03:00 11,6 C 73 % 1009,1 hPa 0,0 l/m N 0,00 h 0 W/m 3,6 km/h (1 Bft)
08.05.2018 04:00 11,0 C 74 % 1009,0 hPa 0,0 l/m O-NO 0,00 h 0 W/m 2,7 km/h (1 Bft)
08.05.2018 05:00 10,3 C 77 % 1009,1 hPa 0,0 l/m NO 0,00 h 6 W/m 3,9 km/h (1 Bft)
08.05.2018 06:00 9,8 C 79 % 1008,9 hPa 0,0 l/m NO 0,17 h 39 W/m 6,3 km/h (2 Bft)
08.05.2018 07:00 11,4 C 74 % 1008,9 hPa 0,0 l/m NO 0,83 h 174 W/m 7,5 km/h (2 Bft)
08.05.2018 08:00 13,7 C 66 % 1008,5 hPa 0,0 l/m NO 1,00 h 364 W/m 10,6 km/h (2 Bft)
08.05.2018 09:00 15,7 C 62 % 1008,3 hPa 0,0 l/m NO 0,83 h 412 W/m 9,0 km/h (2 Bft)
08.05.2018 10:00 17,9 C 57 % 1008,1 hPa 0,0 l/m O-NO 0,92 h 614 W/m 9,1 km/h (2 Bft)
08.05.2018 11:00 20,0 C 52 % 1007,5 hPa 0,0 l/m O 1,00 h 775 W/m 12,0 km/h (2 Bft)
08.05.2018 12:00 21,9 C 48 % 1006,9 hPa 0,0 l/m O 1,00 h 837 W/m 13,2 km/h (3 Bft)
08.05.2018 13:00 23,4 C 45 % 1006,2 hPa 0,0 l/m O-NO 1,00 h 849 W/m 14,8 km/h (3 Bft)
08.05.2018 14:00 24,7 C 40 % 1005,5 hPa 0,0 l/m O-NO 1,00 h 804 W/m 15,0 km/h (3 Bft)
08.05.2018 15:00 24,9 C 34 % 1005,1 hPa 0,0 l/m O 1,00 h 700 W/m 18,9 km/h (3 Bft)
08.05.2018 16:00 24,8 C 31 % 1004,5 hPa 0,0 l/m O 1,00 h 621 W/m 17,4 km/h (3 Bft)
08.05.2018 17:00 24,9 C 29 % 1004,3 hPa 0,0 l/m O 1,00 h 443 W/m 18,0 km/h (3 Bft)
08.05.2018 18:00 23,9 C 28 % 1004,0 hPa 0,0 l/m O 1,00 h 293 W/m 17,3 km/h (3 Bft)
08.05.2018 19:00 22,6 C 31 % 1004,1 hPa 0,0 l/m O-SO 0,50 h 109 W/m 15,3 km/h (3 Bft)
08.05.2018 20:00 20,3 C 36 % 1004,1 hPa 0,0 l/m O 0,08 h 16 W/m 7,5 km/h (2 Bft)
08.05.2018 21:00 18,3 C 43 % 1004,2 hPa 0,0 l/m O-NO 0,00 h 0 W/m 4,5 km/h (1 Bft)
08.05.2018 22:00 16,4 C 50 % 1004,3 hPa 0,0 l/m N 0,00 h 0 W/m 0,5 km/h (0 Bft)
08.05.2018 23:00 14,8 C 56 % 1004,2 hPa 0,0 l/m O-NO 0,00 h 0 W/m 1,5 km/h (1 Bft)
09.05.2018 00:00 14,1 C 61 % 1004,2 hPa 0,0 l/m N 0,00 h 0 W/m 2,8 km/h (1 Bft)
09.05.2018 01:00 13,6 C 65 % 1004,1 hPa 0,0 l/m O-NO 0,00 h 0 W/m 1,1 km/h (0 Bft)
09.05.2018 02:00 12,3 C 70 % 1003,9 hPa 0,0 l/m NO 0,00 h 0 W/m 4,8 km/h (1 Bft)
09.05.2018 03:00 11,5 C 74 % 1003,8 hPa 0,0 l/m NO 0,00 h 0 W/m 3,5 km/h (1 Bft)
09.05.2018 04:00 11,0 C 78 % 1003,7 hPa 0,0 l/m N-NO 0,00 h 0 W/m 6,7 km/h (2 Bft)
09.05.2018 05:00 10,6 C 80 % 1003,7 hPa 0,0 l/m N-NO 0,00 h 6 W/m 1,6 km/h (1 Bft)
09.05.2018 06:00 10,0 C 82 % 1003,9 hPa 0,0 l/m N 0,17 h 39 W/m 0,4 km/h (0 Bft)
09.05.2018 07:00 11,7 C 80 % 1004,2 hPa 0,0 l/m N-NO 0,83 h 179 W/m 3,2 km/h (1 Bft)
09.05.2018 08:00 13,9 C 72 % 1004,1 hPa 0,0 l/m O-NO 1,00 h 369 W/m 9,0 km/h (2 Bft)
09.05.2018 09:00 16,1 C 66 % 1004,3 hPa 0,0 l/m O-NO 0,83 h 415 W/m 6,3 km/h (2 Bft)
09.05.2018 10:00 18,1 C 58 % 1004,3 hPa 0,0 l/m N-NO 0,83 h 568 W/m 12,4 km/h (3 Bft)
09.05.2018 11:00 19,5 C 51 % 1004,2 hPa 0,0 l/m NO 1,00 h 799 W/m 13,8 km/h (3 Bft)
09.05.2018 12:00 20,7 C 48 % 1004,1 hPa 0,0 l/m NO 0,83 h 833 W/m 13,3 km/h (3 Bft)
09.05.2018 13:00 21,6 C 43 % 1003,7 hPa 0,0 l/m NO 0,83 h 817 W/m 16,3 km/h (3 Bft)
09.05.2018 14:00 21,5 C 44 % 1003,3 hPa 0,0 l/m NO 0,33 h 457 W/m 13,6 km/h (3 Bft)
09.05.2018 15:00 22,5 C 40 % 1002,7 hPa 0,0 l/m NO 0,83 h 773 W/m 14,2 km/h (3 Bft)
09.05.2018 16:00 22,5 C 38 % 1002,2 hPa 0,0 l/m O-NO 0,83 h 591 W/m 13,6 km/h (3 Bft)
09.05.2018 17:00 23,0 C 37 % 1002,1 hPa 0,0 l/m N-NO 1,00 h 493 W/m 13,2 km/h (3 Bft)
09.05.2018 18:00 22,7 C 36 % 1002,1 hPa 0,0 l/m O 1,00 h 328 W/m 12,6 km/h (3 Bft)
09.05.2018 19:00 20,3 C 46 % 1002,5 hPa 0,0 l/m O-SO 0,67 h 138 W/m 19,7 km/h (3 Bft)
09.05.2018 20:00 17,6 C 55 % 1002,9 hPa 0,0 l/m SO 0,42 h 31 W/m 9,3 km/h (2 Bft)
09.05.2018 21:00 15,8 C 64 % 1003,1 hPa 0,0 l/m S 0,00 h 0 W/m 1,6 km/h (1 Bft)
09.05.2018 22:00 15,3 C 65 % 1003,3 hPa 0,0 l/m S 0,00 h 0 W/m 3,7 km/h (1 Bft)
09.05.2018 23:00 14,7 C 70 % 1003,6 hPa 0,0 l/m S-SW 0,00 h 0 W/m 13,4 km/h (3 Bft)
10.05.2018 00:00 14,6 C 73 % 1003,5 hPa 0,0 l/m S-SW 0,00 h 0 W/m 11,4 km/h (2 Bft)
10.05.2018 01:00 13,4 C 78 % 1003,4 hPa 0,0 l/m S-SW 0,00 h 0 W/m 3,7 km/h (1 Bft)
10.05.2018 02:00 12,0 C 83 % 1003,2 hPa 0,0 l/m S-SW 0,00 h 0 W/m 3,2 km/h (1 Bft)
10.05.2018 03:00 11,2 C 86 % 1003,4 hPa 0,0 l/m N 0,00 h 0 W/m 0,0 km/h (0 Bft)
10.05.2018 04:00 11,3 C 87 % 1003,7 hPa 0,0 l/m W-SW 0,00 h 0 W/m 3,1 km/h (1 Bft)
10.05.2018 05:00 11,8 C 89 % 1003,8 hPa 0,2 l/m W 0,00 h 5 W/m 10,1 km/h (2 Bft)
10.05.2018 06:00 11,9 C 92 % 1003,8 hPa 0,0 l/m SW 0,92 h 75 W/m 12,6 km/h (3 Bft)
10.05.2018 07:00 13,3 C 90 % 1004,0 hPa 0,0 l/m SW 0,75 h 177 W/m 15,8 km/h (3 Bft)
10.05.2018 08:00 13,1 C 90 % 1005,4 hPa 0,0 l/m S-SW 0,00 h 69 W/m 9,3 km/h (2 Bft)
10.05.2018 09:00 13,4 C 92 % 1006,5 hPa 0,0 l/m W-SW 0,00 h 101 W/m 6,6 km/h (2 Bft)
10.05.2018 10:00 14,5 C 86 % 1006,9 hPa 0,0 l/m W-SW 0,17 h 305 W/m 17,8 km/h (3 Bft)
10.05.2018 11:00 14,7 C 81 % 1007,7 hPa 0,0 l/m W-SW 0,00 h 190 W/m 20,6 km/h (4 Bft)
10.05.2018 12:00 15,8 C 75 % 1008,2 hPa 0,0 l/m W-SW 0,33 h 458 W/m 21,4 km/h (4 Bft)
10.05.2018 13:00 15,7 C 76 % 1008,7 hPa 0,0 l/m SW 0,25 h 453 W/m 24,8 km/h (4 Bft)
10.05.2018 14:00 15,8 C 77 % 1009,1 hPa 0,0 l/m W-SW 0,17 h 347 W/m 20,8 km/h (4 Bft)
10.05.2018 15:00 15,4 C 81 % 1009,6 hPa 0,0 l/m W-SW 0,00 h 228 W/m 20,0 km/h (4 Bft)
10.05.2018 16:00 15,1 C 86 % 1010,1 hPa 0,0 l/m W-SW 0,33 h 265 W/m 22,1 km/h (4 Bft)
10.05.2018 17:00 12,9 C 90 % 1011,4 hPa 0,4 l/m W-NW 0,00 h 125 W/m 22,5 km/h (4 Bft)
10.05.2018 18:00 11,6 C 84 % 1012,8 hPa 0,0 l/m W-NW 0,00 h 66 W/m 24,0 km/h (4 Bft)
10.05.2018 19:00 9,9 C 81 % 1014,5 hPa 0,0 l/m W-NW 0,00 h 12 W/m 14,5 km/h (3 Bft)
10.05.2018 20:00 9,1 C 87 % 1015,8 hPa 0,0 l/m W-NW 0,00 h 6 W/m 5,9 km/h (2 Bft)
10.05.2018 21:00 9,2 C 89 % 1017,0 hPa 0,0 l/m W-NW 0,00 h 0 W/m 3,6 km/h (1 Bft)
10.05.2018 22:00 9,2 C 88 % 1018,0 hPa 0,0 l/m W-SW 0,00 h 0 W/m 10,1 km/h (2 Bft)
10.05.2018 23:00 9,4 C 87 % 1018,4 hPa 0,0 l/m SW 0,00 h 0 W/m 5,1 km/h (1 Bft)
11.05.2018 00:00 9,5 C 87 % 1018,3 hPa 0,0 l/m SW 0,00 h 0 W/m 2,5 km/h (1 Bft)
11.05.2018 01:00 8,8 C 90 % 1018,2 hPa 0,0 l/m SW 0,00 h 0 W/m 2,8 km/h (1 Bft)
11.05.2018 02:00 8,4 C 92 % 1017,9 hPa 0,0 l/m N 0,00 h 0 W/m 0,0 km/h (0 Bft)
11.05.2018 03:00 7,8 C 94 % 1017,7 hPa 0,0 l/m N 0,00 h 0 W/m 0,0 km/h (0 Bft)
11.05.2018 04:00 7,5 C 94 % 1017,5 hPa 0,0 l/m N 0,00 h 0 W/m 0,3 km/h (0 Bft)
11.05.2018 05:00 6,8 C 94 % 1017,3 hPa 0,0 l/m N 0,00 h 6 W/m 0,0 km/h (0 Bft)
11.05.2018 06:00 6,4 C 94 % 1017,4 hPa 0,0 l/m N 0,17 h 39 W/m 0,0 km/h (0 Bft)
11.05.2018 07:00 8,2 C 95 % 1017,4 hPa 0,0 l/m SW 0,75 h 161 W/m 2,0 km/h (1 Bft)
11.05.2018 08:00 10,7 C 89 % 1017,5 hPa 0,0 l/m O-NO 0,92 h 336 W/m 9,0 km/h (2 Bft)
11.05.2018 09:00 12,2 C 82 % 1017,2 hPa 0,0 l/m O-NO 0,00 h 227 W/m 15,8 km/h (3 Bft)
11.05.2018 10:00 13,6 C 74 % 1016,7 hPa 0,0 l/m O 0,42 h 479 W/m 19,4 km/h (3 Bft)
11.05.2018 11:00 14,7 C 72 % 1016,3 hPa 0,0 l/m O 0,58 h 540 W/m 18,1 km/h (3 Bft)
11.05.2018 12:00 15,5 C 70 % 1016,0 hPa 0,0 l/m NO 0,42 h 483 W/m 16,9 km/h (3 Bft)
11.05.2018 13:00 16,4 C 67 % 1015,7 hPa 0,0 l/m O-NO 0,67 h 591 W/m 15,7 km/h (3 Bft)
11.05.2018 14:00 17,8 C 64 % 1015,3 hPa 0,0 l/m O-SO 0,58 h 693 W/m 14,2 km/h (3 Bft)
11.05.2018 15:00 19,1 C 61 % 1014,7 hPa 0,0 l/m NO 0,92 h 716 W/m 14,4 km/h (3 Bft)
11.05.2018 16:00 20,0 C 59 % 1014,3 hPa 0,0 l/m O-NO 1,00 h 614 W/m 12,4 km/h (3 Bft)
11.05.2018 17:00 20,3 C 58 % 1013,8 hPa 0,0 l/m NO 1,00 h 457 W/m 11,0 km/h (2 Bft)
11.05.2018 18:00 20,1 C 59 % 1013,5 hPa 0,0 l/m NO 1,00 h 286 W/m 8,3 km/h (2 Bft)
11.05.2018 19:00 19,2 C 63 % 1013,5 hPa 0,0 l/m NO 0,50 h 109 W/m 7,2 km/h (2 Bft)
11.05.2018 20:00 16,8 C 73 % 1013,8 hPa 0,0 l/m NO 0,08 h 18 W/m 1,9 km/h (1 Bft)
11.05.2018 21:00 14,6 C 82 % 1014,3 hPa 0,0 l/m N 0,00 h 0 W/m 1,3 km/h (1 Bft)
11.05.2018 22:00 13,2 C 87 % 1014,4 hPa 0,0 l/m N 0,00 h 0 W/m 0,0 km/h (0 Bft)
11.05.2018 23:00 12,1 C 90 % 1014,5 hPa 0,0 l/m N 0,00 h 0 W/m 0,0 km/h (0 Bft)
12.05.2018 00:00 11,4 C 93 % 1014,5 hPa 0,0 l/m N 0,00 h 0 W/m 0,0 km/h (0 Bft)
12.05.2018 01:00 10,9 C 94 % 1014,2 hPa 0,0 l/m NO 0,00 h 0 W/m 0,1 km/h (0 Bft)
12.05.2018 02:00 10,5 C 95 % 1014,0 hPa 0,0 l/m N 0,00 h 0 W/m 1,1 km/h (0 Bft)
12.05.2018 03:00 9,9 C 96 % 1013,7 hPa 0,0 l/m N 0,00 h 0 W/m 0,1 km/h (0 Bft)
12.05.2018 04:00 9,5 C 96 % 1013,7 hPa 0,0 l/m N 0,00 h 0 W/m 0,0 km/h (0 Bft)
12.05.2018 05:00 8,6 C 97 % 1013,6 hPa 0,0 l/m N 0,00 h 7 W/m 0,0 km/h (0 Bft)
12.05.2018 06:00 8,8 C 97 % 1013,9 hPa 0,0 l/m N 0,08 h 44 W/m 0,0 km/h (0 Bft)
12.05.2018 07:00 11,0 C 97 % 1014,1 hPa 0,0 l/m N 1,00 h 178 W/m 0,8 km/h (0 Bft)
12.05.2018 08:00 13,4 C 89 % 1014,1 hPa 0,0 l/m N 1,00 h 364 W/m 0,8 km/h (0 Bft)
12.05.2018 09:00 16,7 C 77 % 1013,5 hPa 0,0 l/m NO 0,67 h 361 W/m 2,9 km/h (1 Bft)
12.05.2018 10:00 19,1 C 69 % 1013,0 hPa 0,0 l/m NO 0,92 h 622 W/m 5,7 km/h (1 Bft)
12.05.2018 11:00 21,3 C 57 % 1012,5 hPa 0,0 l/m O-NO 0,83 h 662 W/m 10,7 km/h (2 Bft)
12.05.2018 12:00 22,9 C 52 % 1011,8 hPa 0,0 l/m O-SO 1,00 h 890 W/m 14,2 km/h (3 Bft)
12.05.2018 13:00 24,0 C 46 % 1010,8 hPa 0,0 l/m O 0,92 h 830 W/m 17,3 km/h (3 Bft)
12.05.2018 14:00 24,8 C 44 % 1010,0 hPa 0,0 l/m O 0,67 h 652 W/m 17,7 km/h (3 Bft)
12.05.2018 15:00 25,3 C 43 % 1009,1 hPa 0,0 l/m O-SO 0,67 h 583 W/m 17,3 km/h (3 Bft)
12.05.2018 16:00 24,4 C 45 % 1008,5 hPa 0,0 l/m O-SO 0,25 h 335 W/m 15,8 km/h (3 Bft)
12.05.2018 17:00 24,8 C 45 % 1007,9 hPa 0,0 l/m O-SO 0,83 h 425 W/m 14,3 km/h (3 Bft)
12.05.2018 18:00 24,7 C 43 % 1007,3 hPa 0,0 l/m O 1,00 h 239 W/m 13,0 km/h (3 Bft)
12.05.2018 19:00 23,4 C 47 % 1007,1 hPa 0,0 l/m O 0,08 h 96 W/m 9,9 km/h (2 Bft)
12.05.2018 20:00 21,8 C 51 % 1006,9 hPa 0,0 l/m O-NO 0,17 h 24 W/m 4,5 km/h (1 Bft)
12.05.2018 21:00 18,5 C 64 % 1006,8 hPa 0,0 l/m N 0,00 h 0 W/m 0,0 km/h (0 Bft)
12.05.2018 22:00 16,2 C 71 % 1006,8 hPa 0,0 l/m N 0,00 h 0 W/m 0,0 km/h (0 Bft)
12.05.2018 23:00 15,1 C 76 % 1006,6 hPa 0,0 l/m N 0,00 h 0 W/m 0,8 km/h (0 Bft)
13.05.2018 00:00 14,6 C 78 % 1006,5 hPa 0,0 l/m N 0,00 h 0 W/m 1,5 km/h (1 Bft)
13.05.2018 01:00 14,1 C 80 % 1006,1 hPa 0,0 l/m N 0,00 h 0 W/m 0,5 km/h (0 Bft)
13.05.2018 02:00 13,6 C 83 % 1006,2 hPa 0,0 l/m O-NO 0,00 h 0 W/m 1,1 km/h (0 Bft)
13.05.2018 03:00 12,4 C 87 % 1006,2 hPa 0,0 l/m N 0,00 h 0 W/m 0,3 km/h (0 Bft)
13.05.2018 04:00 12,5 C 87 % 1006,5 hPa 0,0 l/m S-SW 0,00 h 0 W/m 5,2 km/h (1 Bft)
13.05.2018 05:00 12,5 C 88 % 1006,6 hPa 0,0 l/m S-SW 0,00 h 7 W/m 0,4 km/h (0 Bft)
13.05.2018 06:00 12,1 C 91 % 1006,9 hPa 0,0 l/m N 0,33 h 54 W/m 1,6 km/h (1 Bft)
13.05.2018 07:00 13,7 C 88 % 1006,9 hPa 0,0 l/m S-SW 0,42 h 154 W/m 4,0 km/h (1 Bft)
13.05.2018 08:00 15,5 C 82 % 1006,9 hPa 0,0 l/m W-NW 0,67 h 283 W/m 7,2 km/h (2 Bft)
13.05.2018 09:00 16,0 C 79 % 1006,8 hPa 0,0 l/m N 0,00 h 229 W/m 3,3 km/h (1 Bft)
13.05.2018 10:00 16,9 C 76 % 1006,6 hPa 0,0 l/m W-NW 0,33 h 354 W/m 5,4 km/h (1 Bft)
13.05.2018 11:00 18,0 C 73 % 1006,1 hPa 0,0 l/m N-NW 0,33 h 367 W/m 9,1 km/h (2 Bft)
13.05.2018 12:00 18,8 C 70 % 1005,7 hPa 0,0 l/m N-NW 0,25 h 454 W/m 10,1 km/h (2 Bft)
13.05.2018 13:00 20,2 C 66 % 1005,1 hPa 0,0 l/m N-NW 0,58 h 550 W/m 11,9 km/h (2 Bft)
13.05.2018 14:00 20,9 C 64 % 1004,5 hPa 0,0 l/m N 0,50 h 562 W/m 15,2 km/h (3 Bft)
13.05.2018 15:00 21,9 C 61 % 1003,8 hPa 0,0 l/m N-NO 0,83 h 855 W/m 16,9 km/h (3 Bft)
13.05.2018 16:00 21,8 C 61 % 1003,0 hPa 0,0 l/m N-NO 0,83 h 548 W/m 18,1 km/h (3 Bft)
13.05.2018 17:00 19,6 C 66 % 1002,8 hPa 0,0 l/m N 0,00 h 55 W/m 14,1 km/h (3 Bft)
13.05.2018 18:00 17,8 C 78 % 1003,1 hPa 0,8 l/m N 0,00 h 34 W/m 6,6 km/h (2 Bft)
13.05.2018 19:00 15,9 C 88 % 1002,7 hPa 0,0 l/m N 0,00 h 26 W/m 13,7 km/h (3 Bft)
13.05.2018 20:00 14,9 C 91 % 1003,5 hPa 1,8 l/m N-NO 0,00 h 5 W/m 13,2 km/h (3 Bft)
13.05.2018 21:00 13,9 C 95 % 1003,4 hPa 4,0 l/m N-NO 0,00 h 0 W/m 14,2 km/h (3 Bft)
13.05.2018 22:00 13,5 C 97 % 1003,6 hPa 0,0 l/m O-SO 0,00 h 0 W/m 3,2 km/h (1 Bft)
13.05.2018 23:00 13,5 C 97 % 1004,5 hPa 0,0 l/m S-SO 0,00 h 0 W/m 2,8 km/h (1 Bft)
Min-Datum _ 11.05.18 08.05.18 09.05.18 - - - - 07.05.18
_ Min-Zeit 06:25 17:20 17:00 - - - - 00:20
Minimum _ 6,3 C 27 % 1001,9 hPa - - - - 0,0 km/h (0 Bft)
Max-Datum _ 12.05.18 12.05.18 10.05.18 13.05.18 - 07.05.18 11.05.18 09.05.18
_ Max-Zeit 15:40 06:20 23:20 21:00 - 06:50 12:25 13:25
Maximum _ 25,8 C 98 % 1018,5 hPa 4,0 l/m - 0,08 h 1179 W/m 45,1 km/h
NO (6 Bft)
Durchschnitt _ 15,8 C 69 % 1009,2 hPa #7,2 l/m O-NO #62:45 h 362 W/m 9,3 km/h (2 Bft)